Time;durP1;ratioP1;P1;durP2;ratioP2;P2;SDS_P1;SDS_P2;PMS_P1;PMS_P2;Temp;Humidity;BMP_temperature;BMP_pressure;BME280_temperature;BME280_humidity;BME280_pressure;Samples;Min_cycle;Max_cycle;Signal;HPM_P1;HPM_P2
2023/07/31 00:02:14;;;;;;;3.20;2.90;;;;;;;19.83;100.00;98515.48;109349;1254;72870;-72
2023/07/31 00:04:41;;;;;;;3.10;2.90;;;;;;;19.87;100.00;98519.15;109388;1253;60629;-72
2023/07/31 00:07:09;;;;;;;3.40;2.60;;;;;;;19.89;100.00;98520.90;109385;1253;59195;-72
2023/07/31 00:09:36;;;;;;;3.50;3.20;;;;;;;19.92;100.00;98522.29;109406;1253;74679;-72
2023/07/31 00:12:04;;;;;;;3.30;3.00;;;;;;;19.93;100.00;98522.61;109380;1253;67752;-72
2023/07/31 00:14:31;;;;;;;4.30;2.90;;;;;;;19.92;100.00;98520.94;109431;1253;72681;-72
2023/07/31 00:16:59;;;;;;;3.70;3.30;;;;;;;19.91;100.00;98525.73;109374;1253;60387;-72
2023/07/31 00:19:26;;;;;;;3.70;3.50;;;;;;;19.91;100.00;98521.30;109418;1253;58965;-73
2023/07/31 00:21:54;;;;;;;9.00;3.10;;;;;;;19.95;100.00;98526.52;109377;1253;74656;-72
2023/07/31 00:24:21;;;;;;;3.30;3.00;;;;;;;19.98;100.00;98524.79;109425;1253;67578;-72
2023/07/31 00:26:48;;;;;;;3.70;2.70;;;;;;;19.94;100.00;98525.17;109342;1253;72976;-72
2023/07/31 00:29:16;;;;;;;2.90;2.70;;;;;;;19.86;100.00;98523.77;109355;1254;61718;-72
2023/07/31 00:31:43;;;;;;;3.70;3.10;;;;;;;19.80;100.00;98518.31;109398;1254;58872;-72
2023/07/31 00:34:11;;;;;;;3.20;2.80;;;;;;;19.79;100.00;98514.25;109423;1253;73890;-72
2023/07/31 00:36:38;;;;;;;3.10;2.80;;;;;;;19.80;100.00;98515.61;109390;1253;66784;-72
2023/07/31 00:39:06;;;;;;;3.80;3.50;;;;;;;19.82;100.00;98516.98;109338;1252;71576;-72
2023/07/31 00:41:35;;;;;;;3.30;3.10;;;;;;;19.83;100.00;98515.65;109321;1254;61721;-73
2023/07/31 00:44:02;;;;;;;3.50;3.20;;;;;;;19.85;100.00;98518.41;109367;1254;60040;-73
2023/07/31 00:46:30;;;;;;;3.60;3.30;;;;;;;19.86;100.00;98515.85;109393;1253;74637;-72
2023/07/31 00:48:57;;;;;;;3.20;3.00;;;;;;;19.88;100.00;98512.19;109337;1253;66809;-72
2023/07/31 00:51:25;;;;;;;3.50;3.20;;;;;;;19.88;100.00;98514.58;109421;1253;72155;-72
2023/07/31 00:53:54;;;;;;;3.20;3.00;;;;;;;19.86;100.00;98518.27;109386;1254;61279;-73
2023/07/31 00:56:22;;;;;;;3.40;3.10;;;;;;;19.79;100.00;98515.80;109300;1253;58897;-72
2023/07/31 00:58:49;;;;;;;3.70;3.40;;;;;;;19.70;100.00;98518.56;109287;1253;74651;-72
2023/07/31 01:01:16;;;;;;;4.20;3.80;;;;;;;19.63;100.00;98521.95;109381;1253;66842;-72
2023/07/31 01:03:44;;;;;;;4.60;3.30;;;;;;;19.61;100.00;98522.08;109355;1253;71453;-72
2023/07/31 01:06:22;;;;;;;4.30;3.20;;;;;;;19.63;100.00;98522.54;109367;1253;60769;-72
2023/07/31 01:09:22;;;;;;;3.60;3.30;;;;;;;19.65;100.00;98519.33;109288;1253;58938;-72
2023/07/31 01:11:53;;;;;;;3.60;3.30;;;;;;;19.63;100.00;98520.54;109294;1254;74673;-72
2023/07/31 01:14:20;;;;;;;3.90;3.60;;;;;;;19.60;100.00;98520.02;109404;1253;66313;-71
2023/07/31 01:16:48;;;;;;;4.20;3.80;;;;;;;19.58;100.00;98523.98;109346;1253;72497;-71
2023/07/31 01:19:17;;;;;;;3.80;3.40;;;;;;;19.54;100.00;98523.01;109333;1252;62660;-71
2023/07/31 01:21:57;;;;;;;3.40;3.20;;;;;;;19.51;100.00;98521.89;109360;1253;60042;-72
2023/07/31 01:24:46;;;;;;;4.50;3.60;;;;;;;19.50;100.00;98526.80;109398;1253;74651;-72
2023/07/31 01:27:15;;;;;;;3.30;3.10;;;;;;;19.50;100.00;98526.14;109438;1253;67583;-71
2023/07/31 01:29:56;;;;;;;3.30;3.10;;;;;;;19.45;100.00;98526.73;109337;1252;72661;-73
2023/07/31 01:32:23;;;;;;;4.90;3.20;;;;;;;19.42;100.00;98527.94;109351;1254;60385;-73
2023/07/31 01:34:51;;;;;;;5.00;3.60;;;;;;;19.39;100.00;98533.30;109190;1254;59019;-73
2023/07/31 01:37:18;;;;;;;3.50;3.20;;;;;;;19.44;100.00;98537.60;109131;1254;74670;-71
2023/07/31 01:39:46;;;;;;;3.50;3.30;;;;;;;19.44;100.00;98538.97;109411;1253;66992;-72
2023/07/31 01:42:14;;;;;;;3.80;3.40;;;;;;;19.46;100.00;98538.08;109446;1253;72637;-72
2023/07/31 01:44:43;;;;;;;3.30;3.10;;;;;;;19.47;100.00;98537.98;109414;1254;62503;-72
2023/07/31 01:47:10;;;;;;;4.30;3.20;;;;;;;19.49;100.00;98549.64;109572;1252;58939;-72
2023/07/31 01:49:37;;;;;;;3.30;3.00;;;;;;;19.51;100.00;98545.46;109336;1253;73519;-71
2023/07/31 01:52:06;;;;;;;3.30;2.90;;;;;;;19.54;100.00;98547.88;109434;1252;66439;-71
2023/07/31 01:54:33;;;;;;;6.90;4.20;;;;;;;19.57;100.00;98545.77;109346;1253;71304;-72
2023/07/31 01:57:00;;;;;;;3.40;3.10;;;;;;;19.61;100.00;98545.02;109361;1253;60362;-72
2023/07/31 01:59:28;;;;;;;4.20;3.60;;;;;;;19.65;100.00;98544.90;109377;1252;59218;-74
2023/07/31 02:01:56;;;;;;;4.40;2.90;;;;;;;19.65;100.00;98541.34;109367;1253;74654;-72
2023/07/31 02:04:23;;;;;;;5.20;3.20;;;;;;;19.68;100.00;98540.94;109384;1253;67549;-72
2023/07/31 02:06:52;;;;;;;4.50;2.80;;;;;;;19.70;100.00;98545.45;109345;1252;73236;-72
2023/07/31 02:09:19;;;;;;;7.10;3.40;;;;;;;19.74;100.00;98547.00;109368;1254;58993;-72
2023/07/31 02:11:47;;;;;;;9.70;3.60;;;;;;;19.75;100.00;98547.23;109522;1252;59566;-71
2023/07/31 02:14:15;;;;;;;7.70;3.40;;;;;;;19.75;100.00;98546.91;109399;1252;74939;-72
2023/07/31 02:16:43;;;;;;;4.60;3.00;;;;;;;19.63;100.00;98549.09;109476;1252;67904;-72
2023/07/31 02:19:10;;;;;;;4.00;2.70;;;;;;;19.63;100.00;98548.70;109393;1252;72398;-70
2023/07/31 02:21:38;;;;;;;3.10;2.80;;;;;;;19.64;100.00;98549.36;109371;1253;60253;-71
2023/07/31 02:24:05;;;;;;;4.20;2.70;;;;;;;19.66;100.00;98545.89;109449;1253;59236;-72
2023/07/31 02:26:32;;;;;;;3.00;2.60;;;;;;;19.69;100.00;98546.30;109418;1253;74705;-71
2023/07/31 02:29:00;;;;;;;2.60;2.30;;;;;;;19.71;100.00;98549.33;109448;1252;65656;-71
2023/07/31 02:31:27;;;;;;;3.80;2.90;;;;;;;19.69;100.00;98547.59;109335;1254;72675;-72
2023/07/31 02:33:55;;;;;;;5.60;2.80;;;;;;;19.67;100.00;98546.61;109358;1253;60908;-74
2023/07/31 02:36:22;;;;;;;2.90;2.30;;;;;;;19.67;100.00;98551.56;109499;1252;60108;-71
2023/07/31 02:38:49;;;;;;;3.70;2.40;;;;;;;19.69;100.00;98554.83;109390;1255;74655;-71
2023/07/31 02:41:17;;;;;;;3.90;2.90;;;;;;;19.70;100.00;98556.08;109413;1252;67610;-71
2023/07/31 02:43:46;;;;;;;5.00;3.10;;;;;;;19.71;100.00;98558.34;109374;1253;72767;-72
2023/07/31 02:46:14;;;;;;;8.00;3.00;;;;;;;19.71;100.00;98562.89;109353;1253;61758;-71
2023/07/31 02:48:41;;;;;;;2.60;2.40;;;;;;;19.70;100.00;98566.54;109426;1253;60012;-71
2023/07/31 02:51:08;;;;;;;3.00;2.80;;;;;;;19.68;100.00;98562.48;109371;1253;73420;-72
2023/07/31 02:53:36;;;;;;;3.40;3.00;;;;;;;19.62;100.00;98564.40;109395;1253;67703;-72
2023/07/31 02:56:03;;;;;;;3.70;3.30;;;;;;;19.55;100.00;98566.25;109398;1253;71387;-72
2023/07/31 02:58:30;;;;;;;3.10;2.90;;;;;;;19.50;100.00;98566.93;109403;1254;60500;-72
2023/07/31 03:00:58;;;;;;;3.00;2.80;;;;;;;19.46;100.00;98568.44;109455;1253;59999;-72
2023/07/31 03:03:26;;;;;;;5.10;2.90;;;;;;;19.42;100.00;98568.38;109144;1254;73446;-72
2023/07/31 03:05:54;;;;;;;3.30;3.00;;;;;;;19.41;100.00;98574.90;109405;1253;66303;-72
2023/07/31 03:08:21;;;;;;;3.90;2.50;;;;;;;19.42;100.00;98578.67;109386;1253;72711;-72
2023/07/31 03:10:49;;;;;;;2.90;2.20;;;;;;;19.41;100.00;98575.11;109373;1253;62125;-72
2023/07/31 03:13:16;;;;;;;5.40;2.50;;;;;;;19.42;100.00;98573.83;109385;1253;60013;-72
2023/07/31 03:15:44;;;;;;;4.00;2.80;;;;;;;19.51;100.00;98571.73;109372;1254;74804;-72
2023/07/31 03:18:11;;;;;;;2.60;2.40;;;;;;;19.55;100.00;98572.28;109444;1253;66429;-72
2023/07/31 03:20:43;;;;;;;3.00;2.60;;;;;;;19.54;100.00;98571.89;109488;1252;72760;-72
2023/07/31 03:23:10;;;;;;;2.80;2.50;;;;;;;19.55;100.00;98567.48;109423;1253;60473;-72
2023/07/31 03:25:38;;;;;;;2.90;2.40;;;;;;;19.53;100.00;98564.98;109396;1255;59942;-73
2023/07/31 03:28:05;;;;;;;4.10;2.50;;;;;;;19.52;100.00;98568.95;109521;1252;73203;-71
2023/07/31 03:30:32;;;;;;;2.30;2.10;;;;;;;19.52;100.00;98573.28;109424;1253;68113;-71
2023/07/31 03:33:00;;;;;;;3.00;2.20;;;;;;;19.51;100.00;98574.83;109388;1253;71446;-71
2023/07/31 03:35:27;;;;;;;2.80;2.60;;;;;;;19.51;100.00;98571.59;109501;1252;60384;-71
2023/07/31 03:37:55;;;;;;;3.10;2.80;;;;;;;19.50;100.00;98569.04;109315;1253;60010;-72
2023/07/31 03:40:23;;;;;;;3.10;2.50;;;;;;;19.51;100.00;98568.82;109260;1252;74633;-72
2023/07/31 03:42:50;;;;;;;6.30;3.30;;;;;;;19.53;100.00;98567.28;109394;1253;66951;-73
2023/07/31 03:45:17;;;;;;;3.50;3.20;;;;;;;19.50;100.00;98566.71;109445;1253;72851;-73
2023/07/31 03:47:45;;;;;;;3.80;3.50;;;;;;;19.43;100.00;98571.31;109428;1253;61679;-72
2023/07/31 03:50:13;;;;;;;4.30;3.20;;;;;;;19.37;100.00;98570.19;109296;1252;59995;-72
2023/07/31 03:52:41;;;;;;;4.10;3.10;;;;;;;19.33;100.00;98573.84;109411;1253;74767;-73
2023/07/31 03:55:08;;;;;;;6.70;3.30;;;;;;;19.30;100.00;98576.21;109515;1252;66832;-73
2023/07/31 03:57:36;;;;;;;3.50;2.80;;;;;;;19.30;100.00;98581.55;109326;1252;71808;-73
2023/07/31 04:00:04;;;;;;;4.40;3.10;;;;;;;19.30;100.00;98584.84;109433;1253;60648;-72
2023/07/31 04:02:38;;;;;;;3.40;2.80;;;;;;;19.33;100.00;98590.18;109430;1253;58998;-73
2023/07/31 04:05:07;;;;;;;4.10;3.10;;;;;;;19.40;100.00;98590.90;109489;1252;73058;-73
2023/07/31 04:07:35;;;;;;;3.30;2.90;;;;;;;19.48;100.00;98589.56;109419;1253;66432;-71
2023/07/31 04:10:03;;;;;;;3.60;3.30;;;;;;;19.58;100.00;98587.27;109400;1253;71328;-72
2023/07/31 04:12:30;;;;;;;5.40;3.20;;;;;;;19.68;100.00;98583.98;109392;1253;61064;-72
2023/07/31 04:14:58;;;;;;;3.10;2.80;;;;;;;19.78;100.00;98581.97;109426;1253;58836;-71
2023/07/31 04:17:25;;;;;;;2.80;2.60;;;;;;;19.88;100.00;98579.92;109399;1253;73435;-72
2023/07/31 04:19:53;;;;;;;3.10;2.80;;;;;;;19.96;100.00;98577.44;109538;1252;67520;-72
2023/07/31 04:22:20;;;;;;;5.10;2.40;;;;;;;19.94;100.00;98583.46;109407;1254;72667;-71
2023/07/31 04:24:47;;;;;;;2.80;2.50;;;;;;;19.91;100.00;98581.44;109376;1253;60700;-71
2023/07/31 04:27:15;;;;;;;2.60;2.40;;;;;;;19.90;100.00;98580.66;109424;1253;58870;-71
2023/07/31 04:29:44;;;;;;;2.90;2.40;;;;;;;19.92;100.00;98583.39;109441;1254;73972;-72
2023/07/31 04:32:11;;;;;;;2.50;2.30;;;;;;;19.99;100.00;98582.94;109443;1253;67597;-72
2023/07/31 04:34:39;;;;;;;2.90;2.70;;;;;;;20.06;100.00;98582.09;109424;1254;72781;-71
2023/07/31 04:37:06;;;;;;;4.30;2.70;;;;;;;20.10;100.00;98581.83;109199;1253;61967;-71
2023/07/31 04:39:33;;;;;;;3.40;3.10;;;;;;;20.16;100.00;98581.44;109409;1254;58915;-72
2023/07/31 04:42:01;;;;;;;2.70;2.50;;;;;;;20.20;100.00;98581.06;109444;1252;74679;-72
2023/07/31 04:44:28;;;;;;;3.00;2.60;;;;;;;20.21;100.00;98580.27;109493;1252;68550;-71
2023/07/31 04:46:56;;;;;;;2.70;2.50;;;;;;;20.22;100.00;98583.42;109392;1254;71486;-71
2023/07/31 04:49:23;;;;;;;3.30;3.00;;;;;;;20.24;100.00;98581.30;109420;1253;62012;-71
2023/07/31 04:51:50;;;;;;;3.40;3.00;;;;;;;20.27;100.00;98585.17;109425;1253;59973;-71
2023/07/31 04:54:18;;;;;;;3.40;2.90;;;;;;;20.29;100.00;98583.84;109562;1252;74705;-71
2023/07/31 04:56:45;;;;;;;4.60;3.40;;;;;;;20.34;100.00;98580.60;109452;1252;67531;-70
2023/07/31 04:59:12;;;;;;;7.40;3.30;;;;;;;20.37;100.00;98576.09;109372;1253;71403;-71
2023/07/31 05:01:40;;;;;;;5.10;3.40;;;;;;;20.40;100.00;98579.37;109343;1255;61720;-71
2023/07/31 05:04:07;;;;;;;2.90;2.70;;;;;;;20.46;100.00;98575.10;109515;1252;60006;-71
2023/07/31 05:06:35;;;;;;;3.20;2.90;;;;;;;20.49;100.00;98576.91;109213;1255;74659;-71
2023/07/31 05:09:02;;;;;;;4.00;3.10;;;;;;;20.54;100.00;98577.39;109429;1253;67748;-72
2023/07/31 05:11:30;;;;;;;3.60;3.30;;;;;;;20.61;100.00;98575.13;109468;1253;72673;-71
2023/07/31 05:13:57;;;;;;;4.30;3.40;;;;;;;20.68;100.00;98578.02;109380;1254;60585;-71
2023/07/31 05:16:24;;;;;;;4.20;3.50;;;;;;;20.76;100.00;98577.21;109482;1252;59146;-71
2023/07/31 05:18:52;;;;;;;3.70;3.40;;;;;;;20.84;100.00;98575.73;109425;1252;76845;-72
2023/07/31 05:21:19;;;;;;;4.60;4.10;;;;;;;20.94;100.00;98574.77;109434;1252;66136;-72
2023/07/31 05:23:47;;;;;;;5.10;4.20;;;;;;;21.06;100.00;98578.98;109400;1254;72752;-71
2023/07/31 05:26:15;;;;;;;4.00;3.60;;;;;;;21.17;100.00;98576.97;109430;1254;59030;-71
2023/07/31 05:28:45;;;;;;;5.00;3.80;;;;;;;21.28;100.00;98579.38;109507;1253;58993;-71
2023/07/31 05:31:12;;;;;;;3.90;3.50;;;;;;;21.37;100.00;98581.44;109421;1253;73752;-69
2023/07/31 05:33:40;;;;;;;4.30;3.80;;;;;;;21.47;100.00;98580.10;109388;1252;67555;-71
2023/07/31 05:36:07;;;;;;;4.10;3.70;;;;;;;21.58;100.00;98580.65;109459;1253;72625;-71
2023/07/31 05:38:35;;;;;;;4.40;4.00;;;;;;;21.68;100.00;98580.15;109377;1254;61650;-71
2023/07/31 05:41:02;;;;;;;7.60;4.90;;;;;;;21.74;100.00;98577.33;109475;1252;58999;-72
2023/07/31 05:43:30;;;;;;;5.90;4.80;;;;;;;21.79;100.00;98571.27;109444;1253;74771;-71
2023/07/31 05:45:57;;;;;;;4.50;4.10;;;;;;;21.88;100.00;98569.86;109460;1254;66301;-71
2023/07/31 05:48:24;;;;;;;7.30;4.60;;;;;;;22.07;100.00;98566.80;109396;1253;72446;-71
2023/07/31 05:50:52;;;;;;;11.90;4.40;;;;;;;22.33;100.00;98559.50;109413;1253;62123;-70
2023/07/31 05:53:19;;;;;;;4.60;3.80;;;;;;;22.67;100.00;98557.89;109511;1252;59321;-71
2023/07/31 05:55:47;;;;;;;5.10;4.40;;;;;;;23.18;100.00;98551.55;109432;1252;74662;-71
2023/07/31 05:58:14;;;;;;;5.60;5.00;;;;;;;23.83;100.00;98544.92;109409;1252;67570;-72
2023/07/31 06:00:41;;;;;;;7.10;5.10;;;;;;;24.58;100.00;98543.98;109328;1253;72717;-70
2023/07/31 06:03:09;;;;;;;11.20;5.00;;;;;;;25.25;100.00;98536.63;109398;1256;59045;-74
2023/07/31 06:05:36;;;;;;;8.20;4.70;;;;;;;25.89;100.00;98537.98;109495;1253;60159;-72
2023/07/31 06:08:04;;;;;;;8.90;4.00;;;;;;;26.59;100.00;98532.88;109476;1253;73745;-72
2023/07/31 06:10:31;;;;;;;6.00;4.40;;;;;;;27.30;100.00;98532.25;109468;1253;67550;-72
2023/07/31 06:12:58;;;;;;;4.90;4.40;;;;;;;27.88;100.00;98529.63;109537;1254;72651;-73
2023/07/31 06:15:26;;;;;;;9.60;4.30;;;;;;;28.36;100.00;98528.77;109466;1253;60155;-70
2023/07/31 06:17:53;;;;;;;4.30;3.90;;;;;;;28.74;100.00;98530.23;109492;1252;60234;-73
2023/07/31 06:20:21;;;;;;;5.50;3.70;;;;;;;29.04;100.00;98527.67;109410;1254;73860;-72
2023/07/31 06:22:49;;;;;;;6.00;3.80;;;;;;;29.35;100.00;98526.71;109440;1253;67683;-71
2023/07/31 06:25:16;;;;;;;5.60;3.50;;;;;;;29.74;100.00;98524.27;109354;1253;72894;-72
2023/07/31 06:27:44;;;;;;;3.50;2.90;;;;;;;30.09;99.98;98526.05;109342;1254;59267;-72
2023/07/31 06:30:11;;;;;;;4.10;2.80;;;;;;;30.32;97.87;98522.80;109526;1254;59959;-71
2023/07/31 06:32:40;;;;;;;3.10;2.80;;;;;;;30.54;94.64;98521.47;109515;1253;75083;-72
2023/07/31 06:35:08;;;;;;;4.00;2.90;;;;;;;30.78;90.98;98526.39;109433;1253;68129;-74
2023/07/31 06:37:35;;;;;;;4.70;2.70;;;;;;;30.98;87.86;98523.73;109488;1253;73105;-72
2023/07/31 06:40:05;;;;;;;3.10;2.70;;;;;;;31.20;85.43;98519.65;109360;1254;60030;-72
2023/07/31 06:42:33;;;;;;;4.50;3.20;;;;;;;31.44;84.06;98521.61;109458;1253;60055;-73
2023/07/31 06:45:00;;;;;;;3.40;3.00;;;;;;;31.68;81.57;98519.27;109477;1254;74633;-72
2023/07/31 06:47:28;;;;;;;3.60;3.00;;;;;;;31.86;80.96;98521.54;109402;1254;66436;-69
2023/07/31 06:49:55;;;;;;;2.60;2.40;;;;;;;32.12;79.34;98521.81;109540;1252;73256;-61
2023/07/31 06:52:23;;;;;;;5.40;3.20;;;;;;;32.35;78.77;98523.77;109388;1253;60547;-61
2023/07/31 06:55:18;;;;;;;3.40;3.10;;;;;;;32.59;78.33;98524.77;109447;1253;60035;-60
2023/07/31 06:57:46;;;;;;;6.00;3.20;;;;;;;32.86;75.17;98523.54;109203;1253;74823;-72
2023/07/31 07:00:14;;;;;;;5.70;3.20;;;;;;;33.13;73.01;98524.37;109481;1253;66848;-73
2023/07/31 07:02:41;;;;;;;3.30;3.00;;;;;;;33.42;69.47;98524.20;109425;1253;72651;-73
2023/07/31 07:05:09;;;;;;;3.10;2.90;;;;;;;33.53;66.13;98520.11;109404;1253;58995;-74
2023/07/31 07:07:36;;;;;;;5.60;3.40;;;;;;;33.49;65.83;98523.27;109498;1253;60106;-73
2023/07/31 07:10:05;;;;;;;4.40;3.50;;;;;;;33.43;66.11;98522.14;109500;1253;74596;-72
2023/07/31 07:12:32;;;;;;;3.60;3.20;;;;;;;33.31;66.64;98524.56;109471;1252;66436;-72
2023/07/31 07:15:00;;;;;;;5.00;3.20;;;;;;;33.13;66.47;98528.39;109408;1256;72725;-74
2023/07/31 07:17:29;;;;;;;3.90;2.60;;;;;;;32.90;67.57;98526.55;109452;1254;60121;-73
2023/07/31 07:19:57;;;;;;;2.50;2.30;;;;;;;32.83;67.87;98527.68;109395;1253;59031;-73
2023/07/31 07:22:25;;;;;;;4.00;2.20;;;;;;;32.89;68.58;98531.16;109490;1253;74671;-74
2023/07/31 07:24:53;;;;;;;4.70;2.30;;;;;;;33.12;68.16;98528.14;109420;1253;67627;-72
2023/07/31 07:27:20;;;;;;;2.40;2.10;;;;;;;33.43;68.02;98529.92;109258;1253;71862;-70
2023/07/31 07:29:50;;;;;;;2.50;1.60;;;;;;;33.70;64.50;98532.48;109556;1253;58950;-71
2023/07/31 07:32:18;;;;;;;4.80;1.90;;;;;;;33.82;61.47;98532.48;109487;1254;60014;-71
2023/07/31 07:34:47;;;;;;;2.60;1.80;;;;;;;33.91;60.60;98531.29;109452;1253;73390;-71
2023/07/31 07:37:14;;;;;;;1.80;1.60;;;;;;;33.99;60.47;98534.70;109573;1253;66773;-71
2023/07/31 07:39:42;;;;;;;1.70;1.60;;;;;;;34.24;58.67;98535.73;109455;1254;72661;-71
2023/07/31 07:42:09;;;;;;;1.70;1.60;;;;;;;34.45;56.76;98536.87;109510;1253;58909;-71
2023/07/31 07:44:37;;;;;;;2.40;1.60;;;;;;;34.57;56.02;98536.05;109498;1254;60025;-71
2023/07/31 07:47:07;;;;;;;5.30;2.00;;;;;;;34.73;55.24;98542.05;109489;1253;74691;-71
2023/07/31 07:49:35;;;;;;;2.00;1.70;;;;;;;34.84;53.60;98535.95;109407;1253;67583;-71
2023/07/31 07:52:03;;;;;;;4.10;1.70;;;;;;;34.92;51.94;98531.46;109423;1253;71454;-70
2023/07/31 07:54:31;;;;;;;2.50;2.10;;;;;;;34.86;52.37;98531.77;109350;1256;58922;-72
2023/07/31 07:56:58;;;;;;;1.80;1.60;;;;;;;34.51;52.29;98534.81;109469;1253;60005;-72
2023/07/31 07:59:26;;;;;;;3.60;2.00;;;;;;;33.93;51.97;98530.27;109428;1253;74610;-72
2023/07/31 08:01:53;;;;;;;3.60;1.70;;;;;;;33.48;51.76;98529.48;109359;1252;67586;-70
2023/07/31 08:04:20;;;;;;;2.40;1.40;;;;;;;33.25;52.40;98532.76;109432;1253;71144;-72
2023/07/31 08:06:48;;;;;;;2.30;1.40;;;;;;;33.00;51.83;98534.46;109337;1253;59273;-70
2023/07/31 08:09:15;;;;;;;2.40;1.20;;;;;;;32.77;51.97;98537.79;109458;1253;60017;-70
2023/07/31 08:11:43;;;;;;;1.70;1.50;;;;;;;32.85;52.47;98536.90;109465;1254;73351;-70
2023/07/31 08:14:10;;;;;;;1.60;1.40;;;;;;;33.15;53.60;98540.11;109354;1253;66481;-70
2023/07/31 08:16:38;;;;;;;1.70;1.60;;;;;;;33.60;51.96;98536.19;109365;1253;71521;-71
2023/07/31 08:19:06;;;;;;;1.90;1.80;;;;;;;33.96;50.34;98533.05;109417;1253;59317;-72
2023/07/31 08:21:33;;;;;;;6.10;1.90;;;;;;;34.23;49.90;98535.23;109432;1254;60023;-71
2023/07/31 08:24:01;;;;;;;1.70;1.60;;;;;;;34.28;49.27;98529.56;109462;1254;74695;-72
2023/07/31 08:26:28;;;;;;;1.90;1.80;;;;;;;34.14;48.93;98532.89;109370;1253;66440;-71
2023/07/31 08:28:55;;;;;;;3.70;1.80;;;;;;;33.74;48.91;98529.34;109352;1253;70933;-70
2023/07/31 08:31:23;;;;;;;2.60;1.70;;;;;;;33.24;50.78;98529.48;109418;1253;59092;-71
2023/07/31 08:33:51;;;;;;;2.60;1.70;;;;;;;32.65;51.79;98529.39;109414;1254;60009;-70
2023/07/31 08:36:18;;;;;;;2.10;1.70;;;;;;;32.09;52.05;98538.44;109487;1256;75843;-70
2023/07/31 08:38:45;;;;;;;3.00;1.80;;;;;;;31.57;53.31;98535.45;109457;1254;66781;-70
2023/07/31 08:41:13;;;;;;;1.50;1.40;;;;;;;31.20;54.70;98535.02;109452;1254;72650;-70
2023/07/31 08:43:40;;;;;;;2.30;1.60;;;;;;;30.87;56.79;98537.67;109339;1254;60108;-70
2023/07/31 08:46:08;;;;;;;2.20;1.90;;;;;;;30.49;58.10;98535.59;109306;1253;60180;-70
2023/07/31 08:48:36;;;;;;;3.40;1.50;;;;;;;30.25;59.73;98536.56;109513;1253;74743;-70
2023/07/31 08:51:03;;;;;;;2.30;1.90;;;;;;;30.34;58.97;98535.06;109448;1256;67899;-70
2023/07/31 08:53:30;;;;;;;1.90;1.60;;;;;;;30.70;59.64;98532.26;109411;1253;72746;-70
2023/07/31 08:55:58;;;;;;;2.30;1.80;;;;;;;31.31;59.08;98532.51;109236;1253;60746;-70
2023/07/31 08:58:30;;;;;;;2.20;2.00;;;;;;;31.96;57.50;98525.20;109454;1253;59003;-71
2023/07/31 09:00:59;;;;;;;1.40;1.30;;;;;;;32.22;53.52;98528.06;109402;1253;73337;-70
2023/07/31 09:03:27;;;;;;;2.00;1.30;;;;;;;32.09;53.86;98529.13;109321;1253;66475;-70
2023/07/31 09:05:56;;;;;;;3.60;1.70;;;;;;;32.14;53.75;98527.50;109467;1253;73697;-70
2023/07/31 09:08:23;;;;;;;1.70;1.50;;;;;;;32.32;50.58;98526.79;109352;1256;60059;-70
2023/07/31 09:10:50;;;;;;;3.70;1.80;;;;;;;32.41;50.14;98523.48;109201;1254;59233;-70
2023/07/31 09:13:18;;;;;;;1.50;1.40;;;;;;;32.79;49.79;98518.33;109375;1253;73399;-71
2023/07/31 09:15:45;;;;;;;2.50;1.60;;;;;;;33.38;49.03;98517.94;109383;1254;67881;-71
2023/07/31 09:18:17;;;;;;;2.80;1.80;;;;;;;33.73;46.46;98518.34;109491;1254;71425;-71
2023/07/31 09:20:44;;;;;;;2.20;2.00;;;;;;;33.42;45.61;98515.38;109437;1254;60534;-71
2023/07/31 09:23:14;;;;;;;2.10;2.00;;;;;;;32.92;46.00;98514.09;109443;1252;60442;-70
2023/07/31 09:25:43;;;;;;;3.10;2.00;;;;;;;32.64;46.59;98516.91;109455;1253;74685;-71
2023/07/31 09:28:11;;;;;;;4.10;1.60;;;;;;;32.74;45.76;98514.55;109439;1253;66753;-71
2023/07/31 09:30:49;;;;;;;5.20;1.50;;;;;;;33.15;45.10;98508.55;109561;1253;72784;-71
2023/07/31 09:33:18;;;;;;;1.60;1.50;;;;;;;33.48;44.78;98508.11;109408;1253;59335;-70
2023/07/31 09:35:45;;;;;;;1.70;1.60;;;;;;;33.48;42.01;98509.54;109378;1256;59012;-71
2023/07/31 09:38:13;;;;;;;1.60;1.50;;;;;;;33.01;43.11;98513.88;109253;1253;75663;-70
2023/07/31 09:40:43;;;;;;;1.90;1.80;;;;;;;32.56;44.57;98511.73;109474;1253;67891;-70
2023/07/31 09:43:20;;;;;;;5.30;2.60;;;;;;;32.00;45.31;98515.44;109368;1253;72706;-71
2023/07/31 09:45:48;;;;;;;2.90;1.70;;;;;;;31.44;46.17;98518.86;109466;1253;60296;-70
2023/07/31 09:48:16;;;;;;;5.10;1.60;;;;;;;30.93;47.22;98520.26;109449;1253;60473;-71
2023/07/31 09:50:47;;;;;;;1.80;1.70;;;;;;;30.51;47.95;98518.74;109548;1253;73359;-71
2023/07/31 09:53:15;;;;;;;3.10;1.30;;;;;;;30.23;49.60;98518.12;109513;1252;67634;-71
2023/07/31 09:55:43;;;;;;;4.40;1.50;;;;;;;29.95;52.38;98520.12;109481;1253;72774;-71
2023/07/31 09:58:11;;;;;;;1.70;1.60;;;;;;;29.74;55.93;98519.23;109476;1253;58888;-71
2023/07/31 10:00:39;;;;;;;2.30;1.60;;;;;;;29.60;54.45;98513.12;109580;1253;59077;-70
2023/07/31 10:03:08;;;;;;;1.60;1.50;;;;;;;29.79;54.96;98515.02;109465;1254;75176;-70
2023/07/31 10:05:44;;;;;;;2.20;1.70;;;;;;;30.50;52.53;98514.48;109472;1253;67632;-72
2023/07/31 10:08:13;;;;;;;1.60;1.50;;;;;;;31.00;51.42;98508.81;109315;1253;71404;-70
2023/07/31 10:10:42;;;;;;;2.50;1.90;;;;;;;31.06;52.68;98507.89;109347;1254;60070;-70
2023/07/31 10:13:09;;;;;;;1.60;1.50;;;;;;;30.91;52.59;98511.73;109441;1253;58866;-70
2023/07/31 10:15:37;;;;;;;1.60;1.50;;;;;;;30.67;52.46;98514.06;109285;1254;74780;-71
2023/07/31 10:18:07;;;;;;;2.10;1.80;;;;;;;30.42;53.18;98512.16;109463;1253;67910;-71
2023/07/31 10:20:35;;;;;;;1.50;1.40;;;;;;;30.13;53.69;98512.28;109273;1253;72712;-70
2023/07/31 10:23:03;;;;;;;3.00;1.70;;;;;;;29.85;55.72;98511.86;109277;1253;58945;-71
2023/07/31 10:25:30;;;;;;;2.20;1.80;;;;;;;29.63;58.71;98509.67;109558;1253;59026;-70
2023/07/31 10:27:57;;;;;;;3.40;1.90;;;;;;;29.49;62.27;98508.91;109374;1256;74628;-71
2023/07/31 10:30:29;;;;;;;2.80;2.20;;;;;;;29.33;62.14;98507.50;109326;1253;68167;-71
2023/07/31 10:32:56;;;;;;;2.30;1.90;;;;;;;29.13;64.49;98503.31;109476;1253;70900;-70
2023/07/31 10:35:24;;;;;;;4.30;2.20;;;;;;;28.92;68.82;98503.41;109290;1254;58916;-70
2023/07/31 10:37:52;;;;;;;2.10;2.00;;;;;;;28.74;70.40;98497.57;109366;1254;62053;-70
2023/07/31 10:40:24;;;;;;;1.80;1.70;;;;;;;28.54;69.18;98493.62;109406;1254;75557;-71
2023/07/31 10:42:53;;;;;;;2.40;1.70;;;;;;;28.39;72.00;98495.25;109381;1253;66628;-71
2023/07/31 10:45:26;;;;;;;4.70;2.00;;;;;;;28.26;69.72;98493.73;109447;1253;73151;-71
2023/07/31 10:48:03;;;;;;;2.10;1.80;;;;;;;28.17;72.03;98486.55;109355;1253;60162;-70
2023/07/31 10:50:57;;;;;;;3.30;1.60;;;;;;;28.17;71.92;98485.73;109390;1254;60216;-71
2023/07/31 10:53:31;;;;;;;2.90;1.60;;;;;;;28.31;71.37;98483.23;109373;1253;73474;-70
2023/07/31 10:55:59;;;;;;;7.60;2.20;;;;;;;28.54;71.05;98482.30;109435;1253;67464;-71
2023/07/31 10:58:27;;;;;;;3.50;2.00;;;;;;;28.80;71.78;98476.27;109435;1253;72860;-71
2023/07/31 11:01:04;;;;;;;5.20;1.90;;;;;;;29.01;71.33;98473.07;109460;1254;60063;-70
2023/07/31 11:03:48;;;;;;;3.90;2.10;;;;;;;29.09;69.67;98474.72;109422;1253;60061;-70
2023/07/31 11:06:16;;;;;;;2.00;1.60;;;;;;;29.17;71.32;98473.41;109384;1253;73248;-70
2023/07/31 11:08:47;;;;;;;2.20;1.80;;;;;;;29.29;70.13;98476.10;109488;1252;67581;-71
2023/07/31 11:11:15;;;;;;;2.20;2.00;;;;;;;29.40;69.30;98474.58;109336;1253;71911;-71
2023/07/31 11:13:51;;;;;;;2.00;1.90;;;;;;;29.46;68.90;98473.84;109440;1254;59020;-71
2023/07/31 11:16:23;;;;;;;2.20;2.10;;;;;;;29.51;66.99;98476.77;109496;1254;60105;-71
2023/07/31 11:18:53;;;;;;;3.90;1.90;;;;;;;29.48;66.27;98475.42;109409;1257;74667;-70
2023/07/31 11:21:21;;;;;;;2.40;2.00;;;;;;;29.50;66.54;98476.40;109467;1253;67873;-71
2023/07/31 11:23:50;;;;;;;2.60;1.90;;;;;;;29.61;67.29;98474.44;109390;1253;72632;-71
2023/07/31 11:26:19;;;;;;;2.80;2.00;;;;;;;29.74;65.35;98474.43;109497;1256;59205;-71
2023/07/31 11:28:47;;;;;;;3.70;1.80;;;;;;;29.74;64.21;98473.72;109488;1254;60580;-70